KLKR

Lancaster County-Mc Whirter Field Airport

Lancaster, South Carolina, USA
METAR KLKR 181615Z AUTO 24004KT 10SM CLR 13/05 A3017 RMK AO2
Observed Flight Rules
Dec-18 @ 16:15 UTC (16 minutes ago) Visual Flight Rules
Wind Visibility Clouds
240° at 4 knots 10 miles
  • Clear skies
Temperatures Readings
Current 13°C / 55°F
Dewpoint 5°C / 41°F
Humidity 59%
Altimeter 30.17" Hg
Pressure 1022 hPa
Elevation 149
METAR KLKR 181615Z AUTO 24004KT 10SM CLR 13/05 A3017 RMK AO2
Observed Flight Rules
Dec-18 @ 16:15 UTC
(16 minutes ago)
VFR
Wind Visibility
240° at 4 knots 10 miles
Clouds
  • Clear skies
Temperature Dewpoint
13°C / 55°F 5°C / 41°F
Humidity Altimeter Pressure
59% 30.17" Hg 1022 hPa